createdAt,value
2019-02-07T00:01:07.708Z,19.07
2019-02-07T00:04:12.612Z,20.37
2019-02-07T00:07:17.440Z,20.53
2019-02-07T00:10:22.441Z,21.07
2019-02-07T00:13:27.295Z,22.23
2019-02-07T00:16:32.225Z,18.40
2019-02-07T00:19:37.127Z,19.85
2019-02-07T00:22:42.467Z,17.55
2019-02-07T00:25:47.411Z,20.77
2019-02-07T00:28:52.550Z,20.60
2019-02-07T00:31:57.688Z,18.25
2019-02-07T00:35:02.614Z,15.18
2019-02-07T00:38:07.571Z,18.17
2019-02-07T00:41:12.473Z,18.70
2019-02-07T00:44:17.298Z,19.73
2019-02-07T00:47:22.181Z,18.40
2019-02-07T00:50:27.028Z,23.50
2019-02-07T00:53:31.974Z,20.23
2019-02-07T00:56:39.509Z,20.23
2019-02-07T00:59:43.398Z,21.87
2019-02-07T01:02:49.217Z,16.10
2019-02-07T01:05:54.059Z,15.70
2019-02-07T01:08:58.935Z,15.87
2019-02-07T01:12:04.935Z,17.43
2019-02-07T01:15:12.609Z,20.37
2019-02-07T01:18:18.295Z,18.50
2019-02-07T01:21:23.146Z,16.67
2019-02-07T01:24:28.033Z,15.08
2019-02-07T01:27:32.905Z,19.07
2019-02-07T01:30:37.993Z,15.93
2019-02-07T01:33:43.723Z,20.30
2019-02-07T01:36:48.549Z,20.73
2019-02-07T01:39:53.385Z,20.53
2019-02-07T01:42:58.419Z,16.70
2019-02-07T01:46:03.402Z,20.70
2019-02-07T01:49:08.265Z,16.47
2019-02-07T01:52:13.262Z,20.40
2019-02-07T01:55:18.563Z,19.50
2019-02-07T01:58:23.482Z,17.93
2019-02-07T02:01:28.696Z,21.87
2019-02-07T02:04:33.535Z,19.10
2019-02-07T02:07:38.479Z,16.57
2019-02-07T02:10:43.880Z,15.87
2019-02-07T02:13:48.840Z,16.93
2019-02-07T02:16:53.721Z,15.47
2019-02-07T02:19:58.557Z,18.00
2019-02-07T02:23:03.422Z,14.27
2019-02-07T02:26:08.245Z,22.30
2019-02-07T02:29:13.057Z,18.33
2019-02-07T02:32:17.917Z,23.43
2019-02-07T02:35:22.739Z,23.70
2019-02-07T02:38:27.571Z,19.00
2019-02-07T02:41:32.432Z,20.63
2019-02-07T02:44:37.360Z,20.97
2019-02-07T02:47:42.231Z,18.20
2019-02-07T02:50:47.166Z,16.50
2019-02-07T02:53:54.251Z,19.27
2019-02-07T02:56:59.132Z,14.90
2019-02-07T03:00:09.087Z,17.67
2019-02-07T03:03:18.376Z,16.93
2019-02-07T03:06:41.312Z,16.27
2019-02-07T03:10:02.862Z,15.80
2019-02-07T03:13:21.604Z,15.97
2019-02-07T03:16:39.974Z,20.07
2019-02-07T03:19:52.382Z,15.43
2019-02-07T03:22:59.152Z,17.62
2019-02-07T03:26:17.920Z,14.33
2019-02-07T03:29:30.178Z,17.60
2019-02-07T03:32:39.447Z,17.77
2019-02-07T03:35:46.053Z,14.83
2019-02-07T03:38:53.538Z,17.17
2019-02-07T03:42:00.033Z,14.27
2019-02-07T03:45:11.695Z,14.57
2019-02-07T03:48:24.600Z,16.53
2019-02-07T03:51:31.063Z,16.40
2019-02-07T03:54:40.878Z,15.77
2019-02-07T03:58:03.774Z,14.90
2019-02-07T04:01:12.821Z,15.72
2019-02-07T04:04:19.322Z,16.27
2019-02-07T04:07:37.885Z,16.43
2019-02-07T04:10:44.433Z,13.90
2019-02-07T04:14:06.208Z,15.77
2019-02-07T04:17:28.946Z,16.30
2019-02-07T04:20:47.387Z,14.20
2019-02-07T04:23:57.032Z,14.77
2019-02-07T04:27:15.878Z,12.90
2019-02-07T04:30:28.308Z,13.40
2019-02-07T04:33:40.832Z,17.77
2019-02-07T04:36:50.061Z,16.40
2019-02-07T04:40:13.048Z,19.00
2019-02-07T04:43:26.169Z,13.27
2019-02-07T04:46:32.682Z,13.30
2019-02-07T04:49:41.213Z,15.77
2019-02-07T04:52:47.685Z,14.87
2019-02-07T04:56:00.506Z,15.43
2019-02-07T04:59:07.126Z,15.37
2019-02-07T05:02:16.964Z,14.93
2019-02-07T05:05:41.839Z,16.97
2019-02-07T05:09:06.574Z,18.80
2019-02-07T05:12:28.224Z,16.27
2019-02-07T05:15:37.775Z,14.40
2019-02-07T05:18:50.237Z,21.20
2019-02-07T05:21:56.750Z,16.33
2019-02-07T05:25:18.019Z,19.87
2019-02-07T05:28:33.331Z,15.80
2019-02-07T05:31:40.185Z,18.40
2019-02-07T05:34:58.746Z,14.57
2019-02-07T05:38:14.174Z,17.40
2019-02-07T05:41:23.403Z,18.77
2019-02-07T05:44:32.908Z,17.70
2019-02-07T05:47:45.708Z,18.93
2019-02-07T05:51:08.765Z,15.63
2019-02-07T05:54:31.521Z,17.10
2019-02-07T05:57:43.728Z,16.73
2019-02-07T06:01:06.761Z,15.20
2019-02-07T06:04:23.800Z,17.92
2019-02-07T06:07:36.185Z,17.67
2019-02-07T06:10:55.247Z,15.27
2019-02-07T06:14:08.402Z,18.23
2019-02-07T06:17:23.761Z,16.03
2019-02-07T06:20:36.019Z,17.90
2019-02-07T06:23:42.546Z,15.40
2019-02-07T06:26:55.307Z,17.40
2019-02-07T06:30:10.775Z,14.10
2019-02-07T06:33:35.297Z,16.33
2019-02-07T06:36:48.519Z,17.13
2019-02-07T06:40:00.720Z,18.13
2019-02-07T06:43:07.383Z,18.13
2019-02-07T06:46:23.011Z,15.43
2019-02-07T06:49:44.856Z,17.17
2019-02-07T06:53:07.519Z,19.05
2019-02-07T06:56:29.039Z,16.50
2019-02-07T06:59:51.898Z,20.03
2019-02-07T07:03:04.368Z,23.33
2019-02-07T07:06:16.831Z,19.75
2019-02-07T07:09:23.331Z,23.07
2019-02-07T07:12:32.521Z,24.30
2019-02-07T07:15:40.341Z,19.40
2019-02-07T07:19:03.207Z,22.43
2019-02-07T07:22:15.305Z,21.10
2019-02-07T07:25:37.065Z,18.03
2019-02-07T07:28:52.498Z,20.88
2019-02-07T07:32:01.641Z,19.17
2019-02-07T07:35:25.390Z,22.03
2019-02-07T07:38:32.019Z,19.00
2019-02-07T07:41:38.572Z,22.20
2019-02-07T07:44:47.995Z,20.43
2019-02-07T07:47:57.209Z,23.37
2019-02-07T07:51:09.582Z,21.13
2019-02-07T07:54:24.860Z,21.37
2019-02-07T07:57:37.254Z,23.33
2019-02-07T08:00:52.938Z,23.93
2019-02-07T08:03:59.453Z,20.43
2019-02-07T08:07:08.752Z,27.20
2019-02-07T08:10:24.404Z,26.43
2019-02-07T08:13:33.741Z,24.20
2019-02-07T08:16:45.915Z,22.15
2019-02-07T08:20:08.550Z,23.83
2019-02-07T08:23:32.859Z,23.87
2019-02-07T08:26:42.194Z,23.03
2019-02-07T08:29:57.589Z,22.87
2019-02-07T08:33:22.218Z,28.67
2019-02-07T08:36:40.604Z,26.70
2019-02-07T08:39:53.568Z,26.93
2019-02-07T08:43:12.290Z,25.83
2019-02-07T08:46:35.338Z,23.00
2019-02-07T08:49:44.871Z,23.40
2019-02-07T08:52:52.423Z,22.53
2019-02-07T08:55:58.903Z,25.60
2019-02-07T08:59:05.474Z,27.33
2019-02-07T09:02:11.938Z,26.53
2019-02-07T09:05:21.510Z,25.03
2019-02-07T09:08:43.253Z,27.90
2019-02-07T09:11:52.649Z,22.93
2019-02-07T09:15:05.121Z,27.00
2019-02-07T09:18:13.353Z,26.62
2019-02-07T09:21:20.063Z,23.40
2019-02-07T09:24:26.639Z,21.90
2019-02-07T09:27:33.208Z,20.30
2019-02-07T09:30:51.838Z,26.20
2019-02-07T09:33:58.341Z,23.67
2019-02-07T09:37:08.304Z,25.87
2019-02-07T09:40:17.489Z,20.40
2019-02-07T09:43:29.937Z,19.90
2019-02-07T09:46:45.385Z,22.67
2019-02-07T09:50:06.818Z,22.67
2019-02-07T09:53:24.101Z,24.60
2019-02-07T09:56:44.118Z,20.43
2019-02-07T09:59:50.570Z,21.47
2019-02-07T10:03:05.914Z,22.50
2019-02-07T10:06:13.481Z,26.37
2019-02-07T10:09:23.131Z,26.15
2019-02-07T10:12:41.686Z,24.07
2019-02-07T10:16:04.232Z,23.17
2019-02-07T10:19:13.653Z,25.67
2019-02-07T10:22:23.177Z,18.07
2019-02-07T10:25:38.646Z,20.57
2019-02-07T10:29:01.300Z,21.15
2019-02-07T10:32:13.747Z,21.37
2019-02-07T10:35:22.849Z,20.73
2019-02-07T10:38:46.919Z,20.73
2019-02-07T10:41:59.342Z,23.10
2019-02-07T10:45:11.340Z,17.90
2019-02-07T10:48:20.877Z,22.57
2019-02-07T10:51:43.736Z,25.07
2019-02-07T10:54:57.390Z,23.47
2019-02-07T10:58:13.173Z,20.82
2019-02-07T11:01:25.620Z,22.23
2019-02-07T11:04:47.900Z,24.23
2019-02-07T11:08:00.366Z,21.63
2019-02-07T11:11:25.769Z,16.32
2019-02-07T11:14:34.872Z,23.77
2019-02-07T11:17:59.614Z,21.43
2019-02-07T11:21:06.350Z,18.40
2019-02-07T11:24:28.209Z,19.48
2019-02-07T11:27:49.631Z,17.00
2019-02-07T11:31:05.053Z,16.57
2019-02-07T11:34:11.923Z,15.93
2019-02-07T11:37:24.391Z,16.53
2019-02-07T11:40:30.845Z,15.57
2019-02-07T11:43:54.809Z,18.27
2019-02-07T11:47:17.902Z,16.15
2019-02-07T11:50:24.393Z,18.37
2019-02-07T11:57:57.134Z,17.23
2019-02-07T12:01:03.670Z,18.82
2019-02-07T12:04:12.978Z,15.07
2019-02-07T12:07:19.539Z,13.83
2019-02-07T12:10:43.446Z,16.83
2019-02-07T12:13:50.059Z,14.93
2019-02-07T12:17:04.109Z,17.23
2019-02-07T12:20:28.045Z,17.83
2019-02-07T12:23:49.627Z,17.30
2019-02-07T12:26:56.510Z,17.43
2019-02-07T12:30:15.370Z,14.93
2019-02-07T12:33:30.811Z,13.00
2019-02-07T12:36:53.767Z,14.80
2019-02-07T12:40:12.223Z,14.93
2019-02-07T12:43:21.467Z,14.80
2019-02-07T12:46:28.276Z,15.73
2019-02-07T12:49:51.141Z,11.68
2019-02-07T12:53:00.375Z,14.80
2019-02-07T12:56:25.377Z,11.70
2019-02-07T12:59:31.883Z,14.60
2019-02-07T13:02:54.835Z,12.67
2019-02-07T13:06:17.959Z,12.97
2019-02-07T13:09:27.403Z,14.53
2019-02-07T13:12:43.146Z,12.73
2019-02-07T13:15:58.746Z,10.83
2019-02-07T13:19:08.210Z,12.43
2019-02-07T13:22:23.583Z,13.23
2019-02-07T13:25:30.184Z,14.20
2019-02-07T13:28:53.113Z,14.20
2019-02-07T13:32:08.702Z,14.10
2019-02-07T13:35:15.616Z,11.53
2019-02-07T13:38:22.135Z,12.85
2019-02-07T13:41:44.016Z,14.20
2019-02-07T13:45:02.958Z,14.90
2019-02-07T13:48:19.096Z,11.40
2019-02-07T13:51:25.645Z,13.32
2019-02-07T13:54:32.142Z,15.67
2019-02-07T13:57:55.068Z,15.10
2019-02-07T14:01:18.088Z,14.53
2019-02-07T14:04:24.862Z,13.27
2019-02-07T14:07:40.702Z,14.37
2019-02-07T14:10:56.054Z,14.90
2019-02-07T14:14:19.152Z,14.23
2019-02-07T14:17:25.683Z,15.30
2019-02-07T14:20:37.686Z,13.93
2019-02-07T14:23:50.108Z,16.40
2019-02-07T14:26:56.672Z,14.07
2019-02-07T14:30:15.127Z,16.13
2019-02-07T14:33:24.289Z,18.33
2019-02-07T14:36:33.890Z,15.97
2019-02-07T14:39:56.656Z,17.77
2019-02-07T14:43:03.139Z,14.87
2019-02-07T14:46:12.538Z,14.00
2019-02-07T14:49:17.722Z,16.12
2019-02-07T14:52:22.773Z,17.13
2019-02-07T14:55:27.701Z,16.43
2019-02-07T14:58:32.531Z,17.90
2019-02-07T15:01:37.366Z,18.43
2019-02-07T15:04:42.229Z,18.33
2019-02-07T15:07:47.208Z,15.90
2019-02-07T15:10:52.183Z,17.80
2019-02-07T15:13:57.082Z,16.62
2019-02-07T15:17:02.001Z,17.87
2019-02-07T15:20:09.366Z,14.07
2019-02-07T15:23:14.290Z,15.80
2019-02-07T15:26:19.158Z,16.20
2019-02-07T15:29:24.175Z,16.93
2019-02-07T15:32:29.083Z,15.13
2019-02-07T15:35:37.051Z,14.23
2019-02-07T15:38:41.960Z,13.73
2019-02-07T15:41:47.522Z,14.30
2019-02-07T15:44:52.657Z,14.23
2019-02-07T15:47:58.400Z,15.77
2019-02-07T15:51:03.477Z,13.53
2019-02-07T15:54:08.662Z,12.90
2019-02-07T15:57:13.602Z,13.30
2019-02-07T16:00:43.951Z,15.60
2019-02-07T16:03:53.619Z,14.37
2019-02-07T16:06:58.469Z,13.43
2019-02-07T16:10:04.878Z,14.37
2019-02-07T16:13:09.766Z,13.50
2019-02-07T16:16:14.584Z,14.90
2019-02-07T16:19:19.465Z,16.10
2019-02-07T16:22:24.575Z,15.67
2019-02-07T16:25:29.446Z,15.63
2019-02-07T16:28:35.322Z,15.57
2019-02-07T16:31:41.343Z,16.63
2019-02-07T16:34:46.178Z,20.77
2019-02-07T16:37:51.703Z,16.47
2019-02-07T16:40:56.745Z,19.70
2019-02-07T16:44:02.241Z,15.57
2019-02-07T16:47:07.974Z,15.83
2019-02-07T16:50:16.068Z,19.07
2019-02-07T16:53:21.075Z,19.48
2019-02-07T16:56:25.926Z,16.37
2019-02-07T16:59:30.761Z,17.92
2019-02-07T17:02:35.630Z,17.37
2019-02-07T17:05:40.896Z,19.13
2019-02-07T17:08:45.817Z,18.00
2019-02-07T17:11:50.679Z,20.37
2019-02-07T17:14:56.359Z,17.92
2019-02-07T17:18:02.250Z,18.63
2019-02-07T17:21:12.085Z,16.50
2019-02-07T17:24:14.107Z,19.07
2019-02-07T17:27:19.044Z,16.73
2019-02-07T17:30:24.049Z,21.53
2019-02-07T17:33:29.394Z,17.37
2019-02-07T17:36:34.251Z,21.47
2019-02-07T17:39:39.166Z,18.83
2019-02-07T17:42:44.017Z,18.27
2019-02-07T17:45:48.956Z,21.53
2019-02-07T17:48:54.815Z,22.50
2019-02-07T17:51:59.690Z,21.00
2019-02-07T17:55:07.319Z,21.03
2019-02-07T17:58:12.256Z,21.63
2019-02-07T18:01:17.172Z,23.23
2019-02-07T18:04:22.030Z,20.50
2019-02-07T18:07:26.952Z,21.07
2019-02-07T18:10:32.949Z,24.33
2019-02-07T18:13:37.858Z,28.93
2019-02-07T18:16:42.723Z,25.70
2019-02-07T18:19:47.626Z,23.70
2019-02-07T18:22:52.665Z,21.80
2019-02-07T18:25:57.619Z,21.73
2019-02-07T18:29:02.500Z,25.27
2019-02-07T18:32:08.761Z,22.67
2019-02-07T18:35:14.420Z,23.90
2019-02-07T18:38:19.332Z,24.40
2019-02-07T18:41:24.334Z,25.13
2019-02-07T18:44:29.965Z,22.95
2019-02-07T18:47:34.813Z,24.83
2019-02-07T18:50:40.926Z,21.37
2019-02-07T18:53:45.877Z,27.75
2019-02-07T18:56:50.856Z,24.87
2019-02-07T18:59:55.766Z,24.97
2019-02-07T19:03:00.824Z,26.77
2019-02-07T19:06:06.270Z,24.57
2019-02-07T19:09:11.167Z,29.73
2019-02-07T19:12:17.116Z,29.73
2019-02-07T19:15:26.027Z,26.57
2019-02-07T19:18:30.950Z,24.57
2019-02-07T19:21:35.815Z,23.63
2019-02-07T19:24:40.650Z,26.63
2019-02-07T19:27:45.570Z,22.23
2019-02-07T19:30:50.779Z,24.70
2019-02-07T19:33:55.658Z,26.60
2019-02-07T19:37:00.543Z,29.33
2019-02-07T19:40:08.827Z,26.73
2019-02-07T19:43:13.669Z,29.67
2019-02-07T19:46:18.579Z,29.97
2019-02-07T19:49:23.468Z,29.80
2019-02-07T19:52:28.348Z,28.02
2019-02-07T19:55:33.834Z,28.03
2019-02-07T19:58:38.691Z,29.37
2019-02-07T20:01:43.603Z,29.97
2019-02-07T20:04:48.494Z,27.37
2019-02-07T20:07:53.613Z,27.10
2019-02-07T20:10:59.848Z,30.03
2019-02-07T20:14:05.146Z,28.40
2019-02-07T20:17:10.118Z,28.37
2019-02-07T20:20:16.399Z,31.00
2019-02-07T20:23:21.305Z,32.13
2019-02-07T20:26:26.178Z,27.83
2019-02-07T20:29:31.313Z,32.90
2019-02-07T20:32:36.215Z,29.80
2019-02-07T20:35:41.382Z,32.77
2019-02-07T20:38:46.231Z,28.83
2019-02-07T20:41:51.170Z,36.60
2019-02-07T20:44:56.106Z,34.75
2019-02-07T20:48:01.054Z,36.77
2019-02-07T20:51:08.869Z,30.73
2019-02-07T20:54:13.722Z,30.30
2019-02-07T20:57:19.619Z,33.70
2019-02-07T21:00:27.058Z,32.77
2019-02-07T21:03:32.014Z,31.53
2019-02-07T21:06:36.888Z,26.90
2019-02-07T21:09:41.820Z,30.20
2019-02-07T21:12:46.913Z,32.27
2019-02-07T21:15:52.208Z,25.37
2019-02-07T21:18:57.152Z,31.20
2019-02-07T21:22:02.059Z,29.80
2019-02-07T21:25:12.891Z,31.37
2019-02-07T21:28:18.822Z,27.37
2019-02-07T21:31:23.764Z,27.67
2019-02-07T21:34:28.662Z,28.50
2019-02-07T21:37:33.507Z,32.70
2019-02-07T21:40:38.403Z,29.50
2019-02-07T21:43:45.416Z,31.70
2019-02-07T21:46:50.331Z,30.93
2019-02-07T21:49:55.255Z,34.50
2019-02-07T21:53:00.084Z,30.80
2019-02-07T21:56:05.226Z,31.20
2019-02-07T21:59:10.130Z,28.70
2019-02-07T22:02:15.435Z,34.87
2019-02-07T22:05:20.289Z,29.37
2019-02-07T22:08:25.104Z,35.20
2019-02-07T22:11:30.403Z,34.63
2019-02-07T22:14:35.276Z,30.97
2019-02-07T22:17:40.127Z,31.65
2019-02-07T22:20:45.235Z,33.90
2019-02-07T22:23:50.130Z,31.03
2019-02-07T22:26:54.972Z,33.60
2019-02-07T22:29:59.785Z,32.90
2019-02-07T22:33:06.056Z,36.27
2019-02-07T22:36:11.074Z,32.47
2019-02-07T22:39:15.961Z,35.77
2019-02-07T22:42:20.838Z,36.20
2019-02-07T22:45:26.510Z,31.07
2019-02-07T22:48:31.474Z,33.53
2019-02-07T22:51:36.423Z,33.23
2019-02-07T22:54:41.391Z,32.38
2019-02-07T22:57:46.765Z,32.63
2019-02-07T23:01:02.072Z,30.60
2019-02-07T23:04:07.165Z,30.03
2019-02-07T23:07:12.008Z,31.93
2019-02-07T23:10:17.091Z,34.70
2019-02-07T23:13:21.973Z,30.30
2019-02-07T23:16:27.442Z,35.17
2019-02-07T23:19:32.375Z,31.55
2019-02-07T23:22:37.266Z,39.47
2019-02-07T23:25:42.107Z,34.77
2019-02-07T23:28:46.929Z,34.97
2019-02-07T23:31:51.783Z,35.43
2019-02-07T23:34:56.746Z,34.73
2019-02-07T23:38:01.606Z,35.60
2019-02-07T23:41:06.705Z,35.90
2019-02-07T23:44:11.674Z,27.47
2019-02-07T23:47:16.527Z,27.17
2019-02-07T23:50:21.411Z,33.13
2019-02-07T23:53:26.271Z,34.07
2019-02-07T23:56:31.222Z,29.67
2019-02-07T23:59:36.044Z,31.53
